createdAt,value
2018-04-19T00:00:05.573Z,19.10
2018-04-19T00:02:36.855Z,19.10
2018-04-19T00:05:05.689Z,19.10
2018-04-19T00:07:34.537Z,19.10
2018-04-19T00:10:03.423Z,19.00
2018-04-19T00:12:32.272Z,19.00
2018-04-19T00:15:01.119Z,19.00
2018-04-19T00:17:29.989Z,18.90
2018-04-19T00:19:58.852Z,18.90
2018-04-19T00:22:27.684Z,18.90
2018-04-19T00:24:57.306Z,18.80
2018-04-19T00:27:26.158Z,18.80
2018-04-19T00:29:55.041Z,18.80
2018-04-19T00:32:23.882Z,18.70
2018-04-19T00:34:52.737Z,18.70
2018-04-19T00:37:22.336Z,18.60
2018-04-19T00:39:51.952Z,18.60
2018-04-19T00:42:21.570Z,18.60
2018-04-19T00:44:51.176Z,18.60
2018-04-19T00:47:20.788Z,18.60
2018-04-19T00:49:50.436Z,18.50
2018-04-19T00:52:19.290Z,18.50
2018-04-19T00:54:48.913Z,18.50
2018-04-19T00:57:17.749Z,18.40
2018-04-19T00:59:46.596Z,18.50
2018-04-19T01:02:15.440Z,18.50
2018-04-19T01:04:44.284Z,18.40
2018-04-19T01:07:13.134Z,18.40
2018-04-19T01:09:42.737Z,18.40
2018-04-19T01:12:12.463Z,18.30
2018-04-19T01:14:41.296Z,18.30
2018-04-19T01:17:10.156Z,18.30
2018-04-19T01:19:38.996Z,18.30
2018-04-19T01:22:09.145Z,18.30
2018-04-19T01:24:38.092Z,18.30
2018-04-19T01:27:06.949Z,18.30
2018-04-19T01:29:36.571Z,18.20
2018-04-19T01:32:05.434Z,18.20
2018-04-19T01:34:34.264Z,18.20
2018-04-19T01:37:03.980Z,18.20
2018-04-19T01:39:32.842Z,18.20
2018-04-19T01:42:01.706Z,18.20
2018-04-19T01:44:31.461Z,18.10
2018-04-19T01:47:00.303Z,18.10
2018-04-19T01:49:29.159Z,18.10
2018-04-19T01:51:57.985Z,18.00
2018-04-19T01:54:26.826Z,18.00
2018-04-19T01:56:55.669Z,18.00
2018-04-19T01:59:24.509Z,18.00
2018-04-19T02:01:53.491Z,18.00
2018-04-19T02:04:23.075Z,18.00
2018-04-19T02:06:52.684Z,17.90
2018-04-19T02:09:21.536Z,17.80
2018-04-19T02:11:50.385Z,17.80
2018-04-19T02:14:19.228Z,17.80
2018-04-19T02:16:48.069Z,17.70
2018-04-19T02:19:16.980Z,17.60
2018-04-19T02:21:46.000Z,17.50
2018-04-19T02:24:14.851Z,17.50
2018-04-19T02:26:43.701Z,17.60
2018-04-19T02:29:12.541Z,17.60
2018-04-19T02:31:42.161Z,17.50
2018-04-19T02:34:11.005Z,17.50
2018-04-19T02:36:40.269Z,17.50
2018-04-19T02:39:09.110Z,17.40
2018-04-19T02:41:37.966Z,17.40
2018-04-19T02:44:06.813Z,17.50
2018-04-19T02:46:36.426Z,17.30
2018-04-19T02:49:05.261Z,17.20
2018-04-19T02:51:34.108Z,17.20
2018-04-19T02:54:02.964Z,17.20
2018-04-19T02:56:32.736Z,17.30
2018-04-19T02:59:01.574Z,17.20
2018-04-19T03:01:33.270Z,17.30
2018-04-19T03:04:02.430Z,17.30
2018-04-19T03:06:32.036Z,17.30
2018-04-19T03:09:01.656Z,17.30
2018-04-19T03:11:31.261Z,17.30
2018-04-19T03:14:00.913Z,17.30
2018-04-19T03:16:29.754Z,17.20
2018-04-19T03:18:59.369Z,17.20
2018-04-19T03:21:28.207Z,17.20
2018-04-19T03:23:57.065Z,17.10
2018-04-19T03:26:26.262Z,17.00
2018-04-19T03:28:55.128Z,17.00
2018-04-19T03:31:24.185Z,17.00
2018-04-19T03:33:53.033Z,17.00
2018-04-19T03:36:21.884Z,17.10
2018-04-19T03:38:51.505Z,17.00
2018-04-19T03:41:21.117Z,16.90
2018-04-19T03:43:50.010Z,16.90
2018-04-19T03:46:18.856Z,16.80
2018-04-19T03:48:47.696Z,16.80
2018-04-19T03:51:16.553Z,16.80
2018-04-19T03:53:46.170Z,16.80
2018-04-19T03:56:15.785Z,16.80
2018-04-19T03:58:44.657Z,16.80
2018-04-19T04:01:14.291Z,16.70
2018-04-19T04:03:43.904Z,16.60
2018-04-19T04:06:12.745Z,16.60
2018-04-19T04:08:41.599Z,16.60
2018-04-19T04:11:10.447Z,16.70
2018-04-19T04:13:40.073Z,16.70
2018-04-19T04:16:08.936Z,16.60
2018-04-19T04:21:54.109Z,16.70
2018-04-19T04:24:22.961Z,16.60
2018-04-19T04:26:51.779Z,16.70
2018-04-19T04:29:20.607Z,16.70
2018-04-19T04:31:50.241Z,16.70
2018-04-19T04:34:19.093Z,16.70
2018-04-19T04:36:47.929Z,16.70
2018-04-19T04:39:16.776Z,16.70
2018-04-19T04:41:46.393Z,16.60
2018-04-19T04:44:16.002Z,16.60
2018-04-19T04:46:45.621Z,16.60
2018-04-19T04:49:14.477Z,16.50
2018-04-19T04:51:43.337Z,16.60
2018-04-19T04:54:12.200Z,16.60
2018-04-19T04:56:41.064Z,16.40
2018-04-19T04:59:10.692Z,16.00
2018-04-19T05:01:39.548Z,15.90
2018-04-19T05:04:09.160Z,15.90
2018-04-19T05:06:38.909Z,15.90
2018-04-19T05:09:07.764Z,15.90
2018-04-19T05:11:37.365Z,16.00
2018-04-19T05:14:06.991Z,16.10
2018-04-19T05:16:35.831Z,16.00
2018-04-19T05:19:04.661Z,16.10
2018-04-19T05:21:34.273Z,16.30
2018-04-19T05:24:03.124Z,16.20
2018-04-19T05:26:32.740Z,16.40
2018-04-19T05:29:02.370Z,16.40
2018-04-19T05:31:31.203Z,16.40
2018-04-19T05:34:00.189Z,16.50
2018-04-19T05:36:29.052Z,16.50
2018-04-19T05:38:57.903Z,16.50
2018-04-19T05:41:26.749Z,16.50
2018-04-19T05:43:55.600Z,16.50
2018-04-19T05:46:24.549Z,16.40
2018-04-19T05:48:53.404Z,16.50
2018-04-19T05:51:22.245Z,16.60
2018-04-19T05:53:51.084Z,16.60
2018-04-19T05:56:19.925Z,16.70
2018-04-19T05:58:48.781Z,16.70
2018-04-19T06:01:17.629Z,16.80
2018-04-19T06:03:47.245Z,16.80
2018-04-19T06:06:16.120Z,16.80
2018-04-19T06:08:52.021Z,16.90
2018-04-19T06:11:20.865Z,16.90
2018-04-19T06:13:50.481Z,16.90
2018-04-19T06:16:19.361Z,16.90
2018-04-19T06:18:48.956Z,16.80
2018-04-19T06:21:18.603Z,16.90
2018-04-19T06:23:47.493Z,16.90
2018-04-19T06:26:16.336Z,17.00
2018-04-19T06:28:45.169Z,17.10
2018-04-19T06:31:14.021Z,17.30
2018-04-19T06:33:42.866Z,17.30
2018-04-19T06:36:11.740Z,17.40
2018-04-19T06:38:40.559Z,17.40
2018-04-19T06:41:09.402Z,17.60
2018-04-19T06:43:39.028Z,17.70
2018-04-19T06:46:07.888Z,17.70
2018-04-19T06:48:37.496Z,17.90
2018-04-19T06:51:07.110Z,18.00
2018-04-19T06:53:36.746Z,18.10
2018-04-19T06:56:05.575Z,18.00
2018-04-19T06:58:34.423Z,18.20
2018-04-19T07:01:03.305Z,18.30
2018-04-19T07:03:32.894Z,18.50
2018-04-19T07:06:02.503Z,18.70
2018-04-19T07:08:31.677Z,18.60
2018-04-19T07:11:00.962Z,18.70
2018-04-19T07:13:29.798Z,18.80
2018-04-19T07:15:59.804Z,19.10
2018-04-19T07:18:29.416Z,19.40
2018-04-19T07:20:59.052Z,19.40
2018-04-19T07:23:27.885Z,19.40
2018-04-19T07:25:56.736Z,19.60
2018-04-19T07:28:25.583Z,19.60
2018-04-19T07:30:54.454Z,19.50
2018-04-19T07:33:23.292Z,19.60
2018-04-19T07:35:53.250Z,19.90
2018-04-19T07:38:22.081Z,19.80
2018-04-19T07:40:50.940Z,20.20
2018-04-19T07:43:19.792Z,20.30
2018-04-19T07:45:49.441Z,20.50
2018-04-19T07:48:18.293Z,20.50
2018-04-19T07:50:47.133Z,20.50
2018-04-19T07:53:15.985Z,20.60
2018-04-19T07:55:45.609Z,20.80
2018-04-19T07:58:14.459Z,20.70
2018-04-19T08:00:43.309Z,20.80
2018-04-19T08:03:12.149Z,20.90
2018-04-19T08:05:41.774Z,21.10
2018-04-19T08:08:10.630Z,21.10
2018-04-19T08:10:39.476Z,21.40
2018-04-19T08:13:08.315Z,21.40
2018-04-19T08:15:37.169Z,21.50
2018-04-19T08:18:05.992Z,21.50
2018-04-19T08:20:34.840Z,21.40
2018-04-19T08:23:03.688Z,21.40
2018-04-19T08:25:33.282Z,21.30
2018-04-19T08:28:02.149Z,21.20
2018-04-19T08:30:31.413Z,21.30
2018-04-19T08:33:00.260Z,21.20
2018-04-19T08:35:29.110Z,21.40
2018-04-19T08:37:57.940Z,21.60
2018-04-19T08:40:26.785Z,21.60
2018-04-19T08:42:56.366Z,21.90
2018-04-19T08:45:25.209Z,21.90
2018-04-19T08:47:54.043Z,22.40
2018-04-19T08:50:22.872Z,22.70
2018-04-19T08:52:51.732Z,22.90
2018-04-19T08:55:22.083Z,23.10
2018-04-19T08:57:50.941Z,23.10
2018-04-19T09:00:19.788Z,23.10
2018-04-19T09:02:48.648Z,23.20
2018-04-19T09:05:18.230Z,23.70
2018-04-19T09:07:47.837Z,23.80
2018-04-19T09:10:16.685Z,23.80
2018-04-19T09:12:45.528Z,23.90
2018-04-19T09:15:15.124Z,24.40
2018-04-19T09:17:44.728Z,25.00
2018-04-19T09:20:15.091Z,25.20
2018-04-19T09:22:43.913Z,25.20
2018-04-19T09:25:12.762Z,25.60
2018-04-19T09:27:42.384Z,26.90
2018-04-19T09:30:11.211Z,26.80
2018-04-19T09:32:40.051Z,28.70
2018-04-19T09:35:08.873Z,30.60
2018-04-19T09:37:38.509Z,32.40
2018-04-19T09:40:07.598Z,32.30
2018-04-19T09:42:36.462Z,33.30
2018-04-19T09:45:05.333Z,34.60
2018-04-19T09:47:34.221Z,35.00
2018-04-19T09:50:03.064Z,36.40
2018-04-19T09:52:31.907Z,36.90
2018-04-19T09:55:01.511Z,37.00
2018-04-19T09:57:30.353Z,37.00
2018-04-19T09:59:59.833Z,38.30
2018-04-19T10:02:29.446Z,38.30
2018-04-19T10:05:02.137Z,38.20
2018-04-19T10:07:31.031Z,38.60
2018-04-19T10:09:59.868Z,39.20
2018-04-19T10:12:28.722Z,39.70
2018-04-19T10:14:57.552Z,40.10
2018-04-19T10:17:27.175Z,41.10
2018-04-19T10:19:56.821Z,41.20
2018-04-19T10:22:25.663Z,41.10
2018-04-19T10:24:55.279Z,42.10
2018-04-19T10:27:24.947Z,42.30
2018-04-19T10:29:54.067Z,42.20
2018-04-19T10:32:22.914Z,42.50
2018-04-19T10:34:51.998Z,42.50
2018-04-19T10:37:20.861Z,42.30
2018-04-19T10:39:50.484Z,41.60
2018-04-19T10:42:19.336Z,41.60
2018-04-19T10:44:49.110Z,42.00
2018-04-19T10:47:18.191Z,41.40
2018-04-19T10:49:47.116Z,40.90
2018-04-19T10:52:15.953Z,40.70
2018-04-19T10:54:45.760Z,40.50
2018-04-19T10:57:15.346Z,40.40
2018-04-19T10:59:44.176Z,40.30
2018-04-19T11:02:13.035Z,40.60
2018-04-19T11:04:41.838Z,40.90
2018-04-19T11:07:11.446Z,40.80
2018-04-19T11:09:41.964Z,41.20
2018-04-19T11:12:11.578Z,41.60
2018-04-19T11:14:41.183Z,41.90
2018-04-19T11:17:10.793Z,42.20
2018-04-19T11:19:40.399Z,42.90
2018-04-19T11:22:10.005Z,42.90
2018-04-19T11:24:39.623Z,42.50
2018-04-19T11:27:09.225Z,42.50
2018-04-19T11:29:38.895Z,43.10
2018-04-19T11:32:08.503Z,42.30
2018-04-19T11:34:38.123Z,42.70
2018-04-19T11:37:07.016Z,42.70
2018-04-19T11:39:35.864Z,43.00
2018-04-19T11:42:05.472Z,44.70
2018-04-19T11:44:35.072Z,44.50
2018-04-19T11:47:05.596Z,44.30
2018-04-19T11:49:34.436Z,44.30
2018-04-19T11:52:03.280Z,43.60
2018-04-19T11:54:32.124Z,43.60
2018-04-19T11:57:00.958Z,43.70
2018-04-19T11:59:30.564Z,43.90
2018-04-19T12:01:59.408Z,43.80
2018-04-19T12:04:28.796Z,43.50
2018-04-19T12:06:57.646Z,42.80
2018-04-19T12:09:26.475Z,42.80
2018-04-19T12:11:55.749Z,43.10
2018-04-19T12:14:24.726Z,42.60
2018-04-19T12:16:53.568Z,41.20
2018-04-19T12:19:22.426Z,39.30
2018-04-19T12:21:52.029Z,36.10
2018-04-19T12:24:21.640Z,34.80
2018-04-19T12:26:51.264Z,33.20
2018-04-19T12:29:20.851Z,33.00
2018-04-19T12:31:50.468Z,31.70
2018-04-19T12:34:20.094Z,31.40
2018-04-19T12:36:49.672Z,30.90
2018-04-19T12:39:19.309Z,30.50
2018-04-19T12:41:48.126Z,30.40
2018-04-19T12:44:16.968Z,30.20
2018-04-19T12:46:45.792Z,29.90
2018-04-19T12:49:14.654Z,29.90
2018-04-19T12:51:43.478Z,29.90
2018-04-19T12:54:12.336Z,29.50
2018-04-19T12:56:41.188Z,29.40
2018-04-19T12:59:10.037Z,29.40
2018-04-19T13:01:38.865Z,29.50
2018-04-19T13:04:07.953Z,29.30
2018-04-19T13:06:36.857Z,29.20
2018-04-19T13:09:05.641Z,29.20
2018-04-19T13:11:34.477Z,29.10
2018-04-19T13:14:03.317Z,29.30
2018-04-19T13:16:32.171Z,29.30
2018-04-19T13:19:01.012Z,29.20
2018-04-19T13:21:30.631Z,29.30
2018-04-19T13:24:00.403Z,29.30
2018-04-19T13:26:30.748Z,28.90
2018-04-19T13:29:00.341Z,28.90
2018-04-19T13:31:29.195Z,28.80
2018-04-19T13:33:58.060Z,29.00
2018-04-19T13:36:26.994Z,29.10
2018-04-19T13:38:55.849Z,29.00
2018-04-19T13:41:25.776Z,29.00
2018-04-19T13:43:54.850Z,28.90
2018-04-19T13:46:24.694Z,29.30
2018-04-19T13:48:53.632Z,29.30
2018-04-19T13:51:23.222Z,29.70
2018-04-19T13:53:52.366Z,29.80
2018-04-19T13:56:22.621Z,29.80
2018-04-19T13:58:51.454Z,29.70
2018-04-19T14:01:20.295Z,29.50
2018-04-19T14:03:49.151Z,29.60
2018-04-19T14:06:17.972Z,29.80
2018-04-19T14:08:46.817Z,30.10
2018-04-19T14:11:15.984Z,30.30
2018-04-19T14:13:44.835Z,30.40
2018-04-19T14:16:13.661Z,30.50
2018-04-19T14:18:42.509Z,30.50
2018-04-19T14:21:11.348Z,30.60
2018-04-19T14:23:40.202Z,30.60
2018-04-19T14:26:09.034Z,30.60
2018-04-19T14:28:37.889Z,30.70
2018-04-19T14:31:06.756Z,30.80
2018-04-19T14:33:35.576Z,30.80
2018-04-19T14:36:05.186Z,31.00
2018-04-19T14:38:34.035Z,30.90
2018-04-19T14:41:03.741Z,30.90
2018-04-19T14:43:33.395Z,30.80
2018-04-19T14:46:02.966Z,30.60
2018-04-19T14:48:31.835Z,30.50
2018-04-19T14:51:00.676Z,30.50
2018-04-19T14:53:29.508Z,30.40
2018-04-19T14:55:58.372Z,30.40
2018-04-19T14:58:28.315Z,30.40
2018-04-19T15:00:57.129Z,30.20
2018-04-19T15:03:26.769Z,30.00
2018-04-19T15:05:56.333Z,29.90
2018-04-19T15:08:25.170Z,29.80
2018-04-19T15:10:54.521Z,29.90
2018-04-19T15:13:23.354Z,29.90
2018-04-19T15:15:52.197Z,29.80
2018-04-19T15:18:21.148Z,29.70
2018-04-19T15:20:50.033Z,29.70
2018-04-19T15:23:18.855Z,29.70
2018-04-19T15:25:47.739Z,29.60
2018-04-19T15:28:17.292Z,29.40
2018-04-19T15:30:46.909Z,29.30
2018-04-19T15:33:16.534Z,29.20
2018-04-19T15:35:45.368Z,29.10
2018-04-19T15:38:14.241Z,29.10
2018-04-19T15:40:43.075Z,29.00
2018-04-19T15:43:11.904Z,29.00
2018-04-19T15:45:40.759Z,29.00
2018-04-19T15:48:09.586Z,29.00
2018-04-19T15:50:38.432Z,28.90
2018-04-19T15:53:08.039Z,28.60
2018-04-19T15:55:36.962Z,28.60
2018-04-19T15:58:05.802Z,28.60
2018-04-19T16:00:36.195Z,28.60
2018-04-19T16:03:05.069Z,28.60
2018-04-19T16:05:33.941Z,28.60
2018-04-19T16:08:02.773Z,28.60
2018-04-19T16:10:31.629Z,28.50
2018-04-19T16:13:00.481Z,28.40
2018-04-19T16:15:29.365Z,28.30
2018-04-19T16:17:58.161Z,28.20
2018-04-19T16:20:27.824Z,28.30
2018-04-19T16:22:56.675Z,28.30
2018-04-19T16:25:26.485Z,28.30
2018-04-19T16:27:56.525Z,28.30
2018-04-19T16:30:25.353Z,28.20
2018-04-19T16:32:54.196Z,28.20
2018-04-19T16:35:23.031Z,28.10
2018-04-19T16:37:51.901Z,28.10
2018-04-19T16:40:20.742Z,28.10
2018-04-19T16:42:49.585Z,28.10
2018-04-19T16:45:18.425Z,27.90
2018-04-19T16:47:47.288Z,27.90
2018-04-19T16:50:16.168Z,27.90
2018-04-19T16:52:44.980Z,27.80
2018-04-19T16:55:14.591Z,27.70
2018-04-19T16:57:44.188Z,27.50
2018-04-19T17:00:13.791Z,27.40
2018-04-19T17:02:43.425Z,27.40
2018-04-19T17:05:12.276Z,27.40
2018-04-19T17:07:41.128Z,27.40
2018-04-19T17:10:09.957Z,27.40
2018-04-19T17:12:38.849Z,27.40
2018-04-19T17:15:08.509Z,27.30
2018-04-19T17:17:37.385Z,27.20
2018-04-19T17:20:06.229Z,27.20
2018-04-19T17:22:35.455Z,27.30
2018-04-19T17:25:05.062Z,27.30
2018-04-19T17:27:34.125Z,27.20
2018-04-19T17:30:02.984Z,27.30
2018-04-19T17:32:31.836Z,27.20
2018-04-19T17:35:01.463Z,27.10
2018-04-19T17:37:30.873Z,27.10
2018-04-19T17:39:59.713Z,27.10
2018-04-19T17:42:28.558Z,27.00
2018-04-19T17:44:57.438Z,27.00
2018-04-19T17:47:26.281Z,26.90
2018-04-19T17:49:55.122Z,26.90
2018-04-19T17:52:23.951Z,26.80
2018-04-19T17:54:52.807Z,26.70
2018-04-19T17:57:21.648Z,26.60
2018-04-19T17:59:50.494Z,26.60
2018-04-19T18:02:19.343Z,26.60
2018-04-19T18:04:48.335Z,26.60
2018-04-19T18:07:17.925Z,26.40
2018-04-19T18:09:46.769Z,26.30
2018-04-19T18:12:15.597Z,26.40
2018-04-19T18:14:44.461Z,26.30
2018-04-19T18:17:13.311Z,26.20
2018-04-19T18:19:43.091Z,26.20
2018-04-19T18:22:11.933Z,26.10
2018-04-19T18:24:40.774Z,26.00
2018-04-19T18:27:10.385Z,26.00
2018-04-19T18:29:41.332Z,25.90
2018-04-19T18:32:10.958Z,25.80
2018-04-19T18:34:40.905Z,25.80
2018-04-19T18:37:11.251Z,25.70
2018-04-19T18:39:40.605Z,25.60
2018-04-19T18:42:09.449Z,25.60
2018-04-19T18:44:38.331Z,25.50
2018-04-19T18:47:07.198Z,25.50
2018-04-19T18:49:36.793Z,25.30
2018-04-19T18:52:06.403Z,25.20
2018-04-19T18:54:35.237Z,25.10
2018-04-19T18:57:04.094Z,25.10
2018-04-19T18:59:33.726Z,24.90
2018-04-19T19:02:02.577Z,24.90
2018-04-19T19:04:31.430Z,24.90
2018-04-19T19:07:00.253Z,24.80
2018-04-19T19:09:29.916Z,24.70
2018-04-19T19:11:58.758Z,24.60
2018-04-19T19:14:27.588Z,24.70
2018-04-19T19:16:56.443Z,24.60
2018-04-19T19:19:38.002Z,24.50
2018-04-19T19:22:06.845Z,24.50
2018-04-19T19:24:36.451Z,24.60
2018-04-19T19:27:05.293Z,24.50
2018-04-19T19:29:34.150Z,24.60
2018-04-19T19:32:03.003Z,24.60
2018-04-19T19:34:31.864Z,24.50
2018-04-19T19:37:01.254Z,24.50
2018-04-19T19:39:30.114Z,24.50
2018-04-19T19:41:59.739Z,24.40
2018-04-19T19:44:28.597Z,24.30
2018-04-19T19:46:58.224Z,24.30
2018-04-19T19:49:27.158Z,24.20
2018-04-19T19:51:55.992Z,24.20
2018-04-19T19:54:25.625Z,24.20
2018-04-19T19:56:57.160Z,24.20
2018-04-19T19:59:26.750Z,24.10
2018-04-19T20:01:55.848Z,24.10
2018-04-19T20:04:26.266Z,24.10
2018-04-19T20:06:55.906Z,24.00
2018-04-19T20:09:24.766Z,23.90
2018-04-19T20:11:55.341Z,23.90
2018-04-19T20:14:24.183Z,23.90
2018-04-19T20:16:53.805Z,23.90
2018-04-19T20:19:23.393Z,23.80
2018-04-19T20:21:53.742Z,23.80
2018-04-19T20:24:23.335Z,23.80
2018-04-19T20:26:52.987Z,23.70
2018-04-19T20:29:21.828Z,23.70
2018-04-19T20:31:51.007Z,23.70
2018-04-19T20:34:19.857Z,23.70
2018-04-19T20:36:49.510Z,23.60
2018-04-19T20:39:18.318Z,23.50
2018-04-19T20:41:47.174Z,23.60
2018-04-19T20:44:16.033Z,23.50
2018-04-19T20:46:45.719Z,23.30
2018-04-19T20:49:14.604Z,23.30
2018-04-19T20:51:43.436Z,23.20
2018-04-19T20:54:12.287Z,23.20
2018-04-19T20:56:41.138Z,23.20
2018-04-19T20:59:09.987Z,23.20
2018-04-19T21:01:39.602Z,23.10
2018-04-19T21:04:09.246Z,23.10
2018-04-19T21:06:38.078Z,23.00
2018-04-19T21:09:08.454Z,23.00
2018-04-19T21:11:37.292Z,23.00
2018-04-19T21:14:06.113Z,23.00
2018-04-19T21:16:34.970Z,23.00
2018-04-19T21:19:03.810Z,23.00
2018-04-19T21:21:32.653Z,22.90
2018-04-19T21:24:01.489Z,22.90
2018-04-19T21:26:30.334Z,22.90
2018-04-19T21:28:59.185Z,22.80
2018-04-19T21:31:28.059Z,22.80
2018-04-19T21:33:56.894Z,22.70
2018-04-19T21:36:26.514Z,22.60
2018-04-19T21:38:56.065Z,22.60
2018-04-19T21:41:25.685Z,22.60
2018-04-19T21:43:54.508Z,22.50
2018-04-19T21:46:23.365Z,22.60
2018-04-19T21:48:52.211Z,22.60
2018-04-19T21:51:21.095Z,22.60
2018-04-19T21:53:49.885Z,22.50
2018-04-19T21:56:20.236Z,22.40
2018-04-19T21:58:49.864Z,22.50
2018-04-19T22:01:19.475Z,22.40
2018-04-19T22:03:48.475Z,22.40
2018-04-19T22:06:17.304Z,22.40
2018-04-19T22:08:46.170Z,22.40
2018-04-19T22:11:14.988Z,22.40
2018-04-19T22:13:43.828Z,22.30
2018-04-19T22:16:12.671Z,22.30
2018-04-19T22:18:43.017Z,22.20
2018-04-19T22:21:12.629Z,22.30
2018-04-19T22:23:42.229Z,22.20
2018-04-19T22:26:11.821Z,22.20
2018-04-19T22:28:40.655Z,22.10
2018-04-19T22:31:10.155Z,22.10
2018-04-19T22:33:39.001Z,22.10
2018-04-19T22:36:08.680Z,22.00
2018-04-19T22:38:37.524Z,21.90
2018-04-19T22:41:06.424Z,22.00
2018-04-19T22:43:36.388Z,21.90
2018-04-19T22:46:05.248Z,21.90
2018-04-19T22:48:34.099Z,21.90
2018-04-19T22:51:03.712Z,21.80
2018-04-19T22:53:33.338Z,21.80
2018-04-19T22:56:02.188Z,21.70
2018-04-19T22:58:31.053Z,21.80
2018-04-19T23:00:59.889Z,21.70
2018-04-19T23:03:29.496Z,21.70
2018-04-19T23:05:59.104Z,21.70
2018-04-19T23:08:28.722Z,21.60
2018-04-19T23:10:57.582Z,21.60
2018-04-19T23:13:26.431Z,21.60
2018-04-19T23:15:55.278Z,21.30
2018-04-19T23:18:24.878Z,21.40
2018-04-19T23:20:54.498Z,21.40
2018-04-19T23:23:23.336Z,21.40
2018-04-19T23:25:52.191Z,21.40
2018-04-19T23:28:21.804Z,21.30
2018-04-19T23:30:50.688Z,21.30
2018-04-19T23:33:19.541Z,21.30
2018-04-19T23:35:49.153Z,21.30
2018-04-19T23:38:18.105Z,21.20
2018-04-19T23:40:47.710Z,21.10
2018-04-19T23:43:17.327Z,21.10
2018-04-19T23:45:46.182Z,21.10
2018-04-19T23:48:15.040Z,21.10
2018-04-19T23:50:43.882Z,21.10
2018-04-19T23:53:13.505Z,21.10
2018-04-19T23:55:43.135Z,21.10
2018-04-19T23:58:11.975Z,21.00
